sensor_id;sensor_type;location;lat;lon;timestamp;pressure;altitude;pressure_sealevel;temperature;humidity
52105;BME280;38103;42.776;23.112;2023-02-11T00:01:57;95572.47;;;-5.28;78.44
52105;BME280;38103;42.776;23.112;2023-02-11T00:04:24;95571.38;;;-5.23;77.78
52105;BME280;38103;42.776;23.112;2023-02-11T00:06:49;95575.16;;;-5.29;78.20
52105;BME280;38103;42.776;23.112;2023-02-11T00:09:15;95568.03;;;-5.25;77.85
52105;BME280;38103;42.776;23.112;2023-02-11T00:11:40;95574.63;;;-5.34;78.09
52105;BME280;38103;42.776;23.112;2023-02-11T00:14:06;95570.84;;;-5.43;78.17
52105;BME280;38103;42.776;23.112;2023-02-11T00:16:34;95569.38;;;-5.47;77.62
52105;BME280;38103;42.776;23.112;2023-02-11T00:19:00;95569.75;;;-5.54;78.06
52105;BME280;38103;42.776;23.112;2023-02-11T00:21:27;95567.03;;;-5.65;77.94
52105;BME280;38103;42.776;23.112;2023-02-11T00:23:53;95567.47;;;-5.58;78.02
52105;BME280;38103;42.776;23.112;2023-02-11T00:26:24;95564.81;;;-5.57;77.31
52105;BME280;38103;42.776;23.112;2023-02-11T00:28:50;95570.91;;;-5.73;78.23
52105;BME280;38103;42.776;23.112;2023-02-11T00:31:17;95575.47;;;-5.63;77.77
52105;BME280;38103;42.776;23.112;2023-02-11T00:33:44;95569.13;;;-5.57;77.32
52105;BME280;38103;42.776;23.112;2023-02-11T00:36:15;95566.63;;;-5.59;78.04
52105;BME280;38103;42.776;23.112;2023-02-11T00:38:44;95565.81;;;-5.59;78.06
52105;BME280;38103;42.776;23.112;2023-02-11T00:41:11;95574.47;;;-5.61;78.32
52105;BME280;38103;42.776;23.112;2023-02-11T00:43:37;95567.94;;;-5.66;78.65
52105;BME280;38103;42.776;23.112;2023-02-11T00:46:03;95566.63;;;-5.59;77.80
52105;BME280;38103;42.776;23.112;2023-02-11T00:48:28;95554.28;;;-5.54;77.73
52105;BME280;38103;42.776;23.112;2023-02-11T00:50:54;95553.66;;;-5.57;78.23
52105;BME280;38103;42.776;23.112;2023-02-11T00:53:19;95550.81;;;-5.53;77.33
52105;BME280;38103;42.776;23.112;2023-02-11T00:55:44;95551.72;;;-5.54;77.76
52105;BME280;38103;42.776;23.112;2023-02-11T00:58:10;95553.84;;;-5.61;77.69
52105;BME280;38103;42.776;23.112;2023-02-11T01:00:35;95526.00;;;-5.83;77.59
52105;BME280;38103;42.776;23.112;2023-02-11T01:03:01;95564.81;;;-5.57;76.74
52105;BME280;38103;42.776;23.112;2023-02-11T01:05:27;95549.53;;;-5.60;77.37
52105;BME280;38103;42.776;23.112;2023-02-11T01:07:53;95558.34;;;-5.64;76.58
52105;BME280;38103;42.776;23.112;2023-02-11T01:10:18;95558.56;;;-5.67;76.93
52105;BME280;38103;42.776;23.112;2023-02-11T01:12:44;95562.97;;;-5.69;76.88
52105;BME280;38103;42.776;23.112;2023-02-11T01:15:12;95539.78;;;-5.84;77.34
52105;BME280;38103;42.776;23.112;2023-02-11T01:17:38;95507.28;;;-6.14;77.83
52105;BME280;38103;42.776;23.112;2023-02-11T01:20:04;95556.97;;;-5.85;78.51
52105;BME280;38103;42.776;23.112;2023-02-11T01:22:30;95546.69;;;-5.85;78.19
52105;BME280;38103;42.776;23.112;2023-02-11T01:24:55;95548.25;;;-5.82;78.58
52105;BME280;38103;42.776;23.112;2023-02-11T01:27:21;95543.75;;;-5.78;78.44
52105;BME280;38103;42.776;23.112;2023-02-11T01:29:46;95492.66;;;-6.14;77.80
52105;BME280;38103;42.776;23.112;2023-02-11T01:32:12;95550.66;;;-5.79;77.57
52105;BME280;38103;42.776;23.112;2023-02-11T01:34:37;95549.34;;;-5.86;77.98
52105;BME280;38103;42.776;23.112;2023-02-11T01:37:02;95538.69;;;-5.80;77.70
52105;BME280;38103;42.776;23.112;2023-02-11T01:39:28;95514.66;;;-5.95;77.32
52105;BME280;38103;42.776;23.112;2023-02-11T01:41:53;95532.53;;;-5.92;78.08
52105;BME280;38103;42.776;23.112;2023-02-11T01:44:36;95536.94;;;-5.94;78.14
52105;BME280;38103;42.776;23.112;2023-02-11T01:47:02;95539.63;;;-5.96;78.47
52105;BME280;38103;42.776;23.112;2023-02-11T01:49:32;95476.56;;;-6.32;78.66
52105;BME280;38103;42.776;23.112;2023-02-11T01:52:16;95529.31;;;-5.96;78.32
52105;BME280;38103;42.776;23.112;2023-02-11T01:55:00;95531.72;;;-6.07;79.13
52105;BME280;38103;42.776;23.112;2023-02-11T01:57:51;95529.16;;;-6.07;79.42
52105;BME280;38103;42.776;23.112;2023-02-11T02:00:23;95523.91;;;-6.06;79.20
52105;BME280;38103;42.776;23.112;2023-02-11T02:08:08;95527.75;;;-6.13;80.21
52105;BME280;38103;42.776;23.112;2023-02-11T02:10:40;95533.28;;;-6.19;80.29
52105;BME280;38103;42.776;23.112;2023-02-11T02:13:06;95528.97;;;-6.19;80.90
52105;BME280;38103;42.776;23.112;2023-02-11T02:15:34;95528.97;;;-6.19;80.99
52105;BME280;38103;42.776;23.112;2023-02-11T02:18:10;95531.63;;;-6.20;80.75
52105;BME280;38103;42.776;23.112;2023-02-11T02:23:37;95528.59;;;-6.27;80.81
52105;BME280;38103;42.776;23.112;2023-02-11T02:34:48;95441.78;;;-6.84;81.54
52105;BME280;38103;42.776;23.112;2023-02-11T02:40:19;95512.03;;;-6.52;82.46
52105;BME280;38103;42.776;23.112;2023-02-11T02:42:46;95530.22;;;-6.41;82.55
52105;BME280;38103;42.776;23.112;2023-02-11T02:45:12;95528.66;;;-6.43;82.68
52105;BME280;38103;42.776;23.112;2023-02-11T02:47:38;95522.63;;;-6.42;83.19
52105;BME280;38103;42.776;23.112;2023-02-11T02:50:05;95523.78;;;-6.48;82.91
52105;BME280;38103;42.776;23.112;2023-02-11T02:52:38;95524.53;;;-6.46;83.44
52105;BME280;38103;42.776;23.112;2023-02-11T02:57:57;95518.66;;;-6.48;82.66
52105;BME280;38103;42.776;23.112;2023-02-11T03:00:41;95526.94;;;-6.43;82.38
52105;BME280;38103;42.776;23.112;2023-02-11T03:03:26;95516.78;;;-6.60;82.53
52105;BME280;38103;42.776;23.112;2023-02-11T03:08:45;95526.69;;;-6.69;83.63
52105;BME280;38103;42.776;23.112;2023-02-11T03:11:16;95531.66;;;-6.66;83.58
52105;BME280;38103;42.776;23.112;2023-02-11T03:13:45;95525.06;;;-6.70;84.18
52105;BME280;38103;42.776;23.112;2023-02-11T03:16:24;95524.69;;;-6.64;83.75
52105;BME280;38103;42.776;23.112;2023-02-11T03:19:01;95523.00;;;-6.65;84.33
52105;BME280;38103;42.776;23.112;2023-02-11T03:21:30;95528.34;;;-6.68;83.79
52105;BME280;38103;42.776;23.112;2023-02-11T03:24:02;95519.53;;;-6.64;83.88
52105;BME280;38103;42.776;23.112;2023-02-11T03:26:34;95519.53;;;-6.64;83.54
52105;BME280;38103;42.776;23.112;2023-02-11T03:29:18;95512.72;;;-6.65;83.78
52105;BME280;38103;42.776;23.112;2023-02-11T03:34:51;95519.19;;;-6.57;82.08
52105;BME280;38103;42.776;23.112;2023-02-11T03:38:13;95514.59;;;-6.52;82.26
52105;BME280;38103;42.776;23.112;2023-02-11T03:40:18;95507.06;;;-6.55;82.28
52105;BME280;38103;42.776;23.112;2023-02-11T03:42:56;95514.50;;;-6.51;82.18
52105;BME280;38103;42.776;23.112;2023-02-11T03:45:23;95503.56;;;-6.54;81.86
52105;BME280;38103;42.776;23.112;2023-02-11T03:47:54;95477.09;;;-6.71;81.96
52105;BME280;38103;42.776;23.112;2023-02-11T03:50:22;95513.50;;;-6.48;81.57
52105;BME280;38103;42.776;23.112;2023-02-11T03:52:48;95511.66;;;-6.46;81.24
52105;BME280;38103;42.776;23.112;2023-02-11T03:55:17;95518.81;;;-6.51;81.72
52105;BME280;38103;42.776;23.112;2023-02-11T03:57:43;95520.03;;;-6.42;81.01
52105;BME280;38103;42.776;23.112;2023-02-11T04:00:09;95523.44;;;-6.42;81.51
52105;BME280;38103;42.776;23.112;2023-02-11T04:02:36;95520.13;;;-6.44;80.80
52105;BME280;38103;42.776;23.112;2023-02-11T04:05:02;95472.28;;;-6.77;81.76
52105;BME280;38103;42.776;23.112;2023-02-11T04:07:28;95524.53;;;-6.46;81.59
52105;BME280;38103;42.776;23.112;2023-02-11T04:09:53;95522.69;;;-6.44;81.03
52105;BME280;38103;42.776;23.112;2023-02-11T04:12:18;95516.81;;;-6.46;81.38
52105;BME280;38103;42.776;23.112;2023-02-11T04:14:44;95468.34;;;-6.83;81.01
52105;BME280;38103;42.776;23.112;2023-02-11T04:17:10;95521.19;;;-6.63;81.87
52105;BME280;38103;42.776;23.112;2023-02-11T04:19:35;95521.19;;;-6.63;81.34
52105;BME280;38103;42.776;23.112;2023-02-11T04:22:01;95524.84;;;-6.67;82.03
52105;BME280;38103;42.776;23.112;2023-02-11T04:24:26;95524.84;;;-6.67;82.25
52105;BME280;38103;42.776;23.112;2023-02-11T04:26:52;95520.63;;;-6.68;82.04
52105;BME280;38103;42.776;23.112;2023-02-11T04:29:18;95518.06;;;-6.68;81.33
52105;BME280;38103;42.776;23.112;2023-02-11T04:31:44;95520.25;;;-6.76;82.08
52105;BME280;38103;42.776;23.112;2023-02-11T04:34:09;95519.13;;;-6.87;82.97
52105;BME280;38103;42.776;23.112;2023-02-11T04:36:35;95528.94;;;-6.93;83.63
52105;BME280;38103;42.776;23.112;2023-02-11T04:39:00;95524.44;;;-6.90;83.73
52105;BME280;38103;42.776;23.112;2023-02-11T04:41:26;95520.22;;;-6.91;83.75
52105;BME280;38103;42.776;23.112;2023-02-11T04:43:51;95519.28;;;-6.90;84.14
52105;BME280;38103;42.776;23.112;2023-02-11T04:46:17;95504.22;;;-6.96;83.82
52105;BME280;38103;42.776;23.112;2023-02-11T04:48:42;95516.31;;;-6.98;84.36
52105;BME280;38103;42.776;23.112;2023-02-11T04:51:08;95520.97;;;-7.05;84.80
52105;BME280;38103;42.776;23.112;2023-02-11T04:53:33;95529.69;;;-7.08;85.20
52105;BME280;38103;42.776;23.112;2023-02-11T04:55:59;95517.41;;;-7.02;84.62
52105;BME280;38103;42.776;23.112;2023-02-11T04:58:24;95507.84;;;-7.00;85.02
52105;BME280;38103;42.776;23.112;2023-02-11T05:00:50;95508.84;;;-7.03;85.60
52105;BME280;38103;42.776;23.112;2023-02-11T05:03:16;95505.97;;;-7.13;86.01
52105;BME280;38103;42.776;23.112;2023-02-11T05:05:42;95505.72;;;-7.08;86.28
52105;BME280;38103;42.776;23.112;2023-02-11T05:08:08;95454.56;;;-7.44;86.14
52105;BME280;38103;42.776;23.112;2023-02-11T05:10:34;95499.94;;;-7.12;86.54
52105;BME280;38103;42.776;23.112;2023-02-11T05:13:00;95499.78;;;-7.09;86.27
52105;BME280;38103;42.776;23.112;2023-02-11T05:15:26;95499.94;;;-7.12;86.25
52105;BME280;38103;42.776;23.112;2023-02-11T05:17:52;95492.78;;;-7.07;85.50
52105;BME280;38103;42.776;23.112;2023-02-11T05:20:17;95493.13;;;-7.13;86.31
52105;BME280;38103;42.776;23.112;2023-02-11T05:22:43;95494.25;;;-7.02;85.24
52105;BME280;38103;42.776;23.112;2023-02-11T05:25:08;95485.66;;;-7.01;85.18
52105;BME280;38103;42.776;23.112;2023-02-11T05:27:34;95444.78;;;-7.37;84.98
52105;BME280;38103;42.776;23.112;2023-02-11T05:29:59;95493.53;;;-7.04;83.99
52105;BME280;38103;42.776;23.112;2023-02-11T05:32:25;95474.16;;;-7.26;84.22
52105;BME280;38103;42.776;23.112;2023-02-11T05:34:50;95487.56;;;-7.05;84.30
52105;BME280;38103;42.776;23.112;2023-02-11T05:37:15;95493.28;;;-7.00;84.69
52105;BME280;38103;42.776;23.112;2023-02-11T05:39:41;95500.88;;;-6.98;85.03
52105;BME280;38103;42.776;23.112;2023-02-11T05:42:06;95499.88;;;-6.96;85.03
52105;BME280;38103;42.776;23.112;2023-02-11T05:44:31;95493.09;;;-6.97;85.11
52105;BME280;38103;42.776;23.112;2023-02-11T05:46:57;95460.44;;;-7.11;85.37
52105;BME280;38103;42.776;23.112;2023-02-11T05:49:22;95499.94;;;-6.81;85.99
52105;BME280;38103;42.776;23.112;2023-02-11T05:51:47;95473.13;;;-6.77;85.49
52105;BME280;38103;42.776;23.112;2023-02-11T05:54:13;95496.41;;;-6.49;85.65
52105;BME280;38103;42.776;23.112;2023-02-11T05:56:38;95501.47;;;-6.33;85.07
52105;BME280;38103;42.776;23.112;2023-02-11T05:59:04;95508.19;;;-6.15;84.99
52105;BME280;38103;42.776;23.112;2023-02-11T06:01:29;95498.22;;;-5.92;83.78
52105;BME280;38103;42.776;23.112;2023-02-11T06:03:54;95502.25;;;-5.74;83.12
52105;BME280;38103;42.776;23.112;2023-02-11T06:06:20;95511.22;;;-5.52;81.97
52105;BME280;38103;42.776;23.112;2023-02-11T06:08:45;95505.53;;;-5.29;81.00
52105;BME280;38103;42.776;23.112;2023-02-11T06:11:14;95511.72;;;-5.32;79.60
52105;BME280;38103;42.776;23.112;2023-02-11T06:13:39;95486.38;;;-5.25;79.20
52105;BME280;38103;42.776;23.112;2023-02-11T06:16:05;95503.09;;;-4.90;78.49
52105;BME280;38103;42.776;23.112;2023-02-11T06:18:30;95503.53;;;-4.70;77.43
52105;BME280;38103;42.776;23.112;2023-02-11T06:20:58;95506.88;;;-4.55;76.93
52105;BME280;38103;42.776;23.112;2023-02-11T06:23:23;95507.19;;;-4.33;75.75
52105;BME280;38103;42.776;23.112;2023-02-11T06:25:49;95500.78;;;-4.15;74.57
52105;BME280;38103;42.776;23.112;2023-02-11T06:28:14;95507.72;;;-4.02;74.04
52105;BME280;38103;42.776;23.112;2023-02-11T06:30:40;95503.84;;;-3.83;73.15
52105;BME280;38103;42.776;23.112;2023-02-11T06:33:05;95506.06;;;-3.65;72.07
52105;BME280;38103;42.776;23.112;2023-02-11T06:35:31;95480.66;;;-3.72;71.27
52105;BME280;38103;42.776;23.112;2023-02-11T06:37:58;95511.34;;;-3.29;70.52
52105;BME280;38103;42.776;23.112;2023-02-11T06:40:23;95506.47;;;-3.45;69.74
52105;BME280;38103;42.776;23.112;2023-02-11T06:42:48;95507.09;;;-3.55;70.48
52105;BME280;38103;42.776;23.112;2023-02-11T06:45:14;95505.22;;;-3.53;70.57
52105;BME280;38103;42.776;23.112;2023-02-11T06:47:40;95511.97;;;-3.26;69.62
52105;BME280;38103;42.776;23.112;2023-02-11T06:50:07;95512.06;;;-3.03;69.07
52105;BME280;38103;42.776;23.112;2023-02-11T06:52:33;95516.50;;;-2.80;68.09
52105;BME280;38103;42.776;23.112;2023-02-11T06:54:59;95511.25;;;-2.78;68.13
52105;BME280;38103;42.776;23.112;2023-02-11T06:57:24;95509.91;;;-2.48;66.42
52105;BME280;38103;42.776;23.112;2023-02-11T06:59:49;95480.63;;;-2.37;65.48
52105;BME280;38103;42.776;23.112;2023-02-11T07:02:15;95497.94;;;-2.03;64.64
52105;BME280;38103;42.776;23.112;2023-02-11T07:04:40;95508.19;;;-1.67;62.38
52105;BME280;38103;42.776;23.112;2023-02-11T07:07:06;95503.81;;;-1.43;62.10
52105;BME280;38103;42.776;23.112;2023-02-11T07:09:31;95503.53;;;-1.29;60.85
52105;BME280;38103;42.776;23.112;2023-02-11T07:11:57;95432.66;;;-1.74;61.08
52105;BME280;38103;42.776;23.112;2023-02-11T07:14:22;95496.94;;;-0.88;59.64
52105;BME280;38103;42.776;23.112;2023-02-11T07:16:47;95473.94;;;-0.93;58.68
52105;BME280;38103;42.776;23.112;2023-02-11T07:19:13;95491.41;;;-0.62;58.07
52105;BME280;38103;42.776;23.112;2023-02-11T07:21:38;95485.75;;;-0.46;57.79
52105;BME280;38103;42.776;23.112;2023-02-11T07:24:08;95483.56;;;0.02;56.06
52105;BME280;38103;42.776;23.112;2023-02-11T07:26:34;95488.22;;;0.08;56.19
52105;BME280;38103;42.776;23.112;2023-02-11T07:28:59;95483.00;;;0.08;55.11
52105;BME280;38103;42.776;23.112;2023-02-11T07:31:27;95474.44;;;0.18;53.97
52105;BME280;38103;42.776;23.112;2023-02-11T07:33:54;95476.41;;;0.26;54.66
52105;BME280;38103;42.776;23.112;2023-02-11T07:36:20;95479.91;;;0.66;54.40
52105;BME280;38103;42.776;23.112;2023-02-11T07:38:46;95463.78;;;0.92;52.27
52105;BME280;38103;42.776;23.112;2023-02-11T07:41:14;95472.56;;;1.31;51.50
52105;BME280;38103;42.776;23.112;2023-02-11T07:43:40;95462.47;;;1.66;49.43
52105;BME280;38103;42.776;23.112;2023-02-11T07:46:11;95472.44;;;1.81;48.21
52105;BME280;38103;42.776;23.112;2023-02-11T07:48:37;95457.59;;;2.01;48.44
52105;BME280;38103;42.776;23.112;2023-02-11T07:51:14;95463.03;;;2.08;47.65
52105;BME280;38103;42.776;23.112;2023-02-11T07:53:39;95462.97;;;2.28;47.86
52105;BME280;38103;42.776;23.112;2023-02-11T07:56:06;95466.41;;;2.28;46.36
52105;BME280;38103;42.776;23.112;2023-02-11T07:58:32;95452.47;;;1.61;47.93
52105;BME280;38103;42.776;23.112;2023-02-11T08:01:06;95470.47;;;1.44;48.61
52105;BME280;38103;42.776;23.112;2023-02-11T08:03:33;95470.59;;;1.53;49.44
52105;BME280;38103;42.776;23.112;2023-02-11T08:06:06;95466.34;;;1.42;49.18
52105;BME280;38103;42.776;23.112;2023-02-11T08:08:31;95464.25;;;1.65;48.55
52105;BME280;38103;42.776;23.112;2023-02-11T08:10:57;95417.38;;;1.45;48.29
52105;BME280;38103;42.776;23.112;2023-02-11T08:13:22;95467.78;;;1.84;48.23
52105;BME280;38103;42.776;23.112;2023-02-11T08:15:48;95475.31;;;1.97;47.77
52105;BME280;38103;42.776;23.112;2023-02-11T08:18:13;95467.97;;;2.11;47.48
52105;BME280;38103;42.776;23.112;2023-02-11T08:20:38;95462.44;;;2.24;47.41
52105;BME280;38103;42.776;23.112;2023-02-11T08:23:06;95442.00;;;1.81;48.48
52105;BME280;38103;42.776;23.112;2023-02-11T08:25:32;95460.09;;;1.93;48.32
52105;BME280;38103;42.776;23.112;2023-02-11T08:27:57;95462.28;;;1.87;48.68
52105;BME280;38103;42.776;23.112;2023-02-11T08:30:23;95459.00;;;1.85;49.25
52105;BME280;38103;42.776;23.112;2023-02-11T08:32:49;95416.97;;;1.88;49.16
52105;BME280;38103;42.776;23.112;2023-02-11T08:35:15;95464.72;;;1.99;48.52
52105;BME280;38103;42.776;23.112;2023-02-11T08:37:40;95469.38;;;2.05;49.47
52105;BME280;38103;42.776;23.112;2023-02-11T08:40:06;95462.81;;;2.01;49.05
52105;BME280;38103;42.776;23.112;2023-02-11T08:42:31;95471.59;;;2.00;48.75
52105;BME280;38103;42.776;23.112;2023-02-11T08:44:56;95423.94;;;1.60;47.71
52105;BME280;38103;42.776;23.112;2023-02-11T08:47:22;95454.94;;;1.53;50.08
52105;BME280;38103;42.776;23.112;2023-02-11T08:49:47;95456.03;;;1.60;48.19
52105;BME280;38103;42.776;23.112;2023-02-11T08:52:12;95467.84;;;1.44;47.73
52105;BME280;38103;42.776;23.112;2023-02-11T08:54:38;95478.03;;;1.28;48.24
52105;BME280;38103;42.776;23.112;2023-02-11T08:57:03;95472.28;;;1.34;49.81
52105;BME280;38103;42.776;23.112;2023-02-11T08:59:29;95472.09;;;1.55;50.33
52105;BME280;38103;42.776;23.112;2023-02-11T09:01:54;95419.59;;;1.40;49.43
52105;BME280;38103;42.776;23.112;2023-02-11T09:04:20;95463.91;;;1.88;48.88
52105;BME280;38103;42.776;23.112;2023-02-11T09:06:46;95460.44;;;1.70;48.31
52105;BME280;38103;42.776;23.112;2023-02-11T09:09:13;95449.09;;;1.89;47.15
52105;BME280;38103;42.776;23.112;2023-02-11T09:11:40;95458.53;;;2.00;47.18
52105;BME280;38103;42.776;23.112;2023-02-11T09:14:06;95459.50;;;1.99;47.35
52105;BME280;38103;42.776;23.112;2023-02-11T09:16:34;95455.72;;;1.73;47.62
52105;BME280;38103;42.776;23.112;2023-02-11T09:19:01;95410.28;;;1.38;48.39
52105;BME280;38103;42.776;23.112;2023-02-11T09:21:27;95456.00;;;1.70;48.20
52105;BME280;38103;42.776;23.112;2023-02-11T09:23:53;95455.50;;;1.56;49.47
52105;BME280;38103;42.776;23.112;2023-02-11T09:39:17;95433.34;;;3.20;45.54
52105;BME280;38103;42.776;23.112;2023-02-11T09:44:24;95421.94;;;3.21;46.22
52105;BME280;38103;42.776;23.112;2023-02-11T09:47:05;95424.19;;;3.16;44.72
52105;BME280;38103;42.776;23.112;2023-02-11T09:49:44;95423.50;;;3.14;46.20
52105;BME280;38103;42.776;23.112;2023-02-11T09:52:20;95408.78;;;3.13;46.12
52105;BME280;38103;42.776;23.112;2023-02-11T09:54:59;95414.59;;;3.07;46.85
52105;BME280;38103;42.776;23.112;2023-02-11T09:57:31;95407.09;;;3.04;46.26
52105;BME280;38103;42.776;23.112;2023-02-11T09:59:57;95404.31;;;2.87;45.17
52105;BME280;38103;42.776;23.112;2023-02-11T10:02:33;95399.72;;;2.81;46.38
52105;BME280;38103;42.776;23.112;2023-02-11T10:07:50;95396.78;;;2.47;45.90
52105;BME280;38103;42.776;23.112;2023-02-11T10:19:01;95371.50;;;2.29;48.90
52105;BME280;38103;42.776;23.112;2023-02-11T10:24:09;95315.75;;;2.02;48.57
52105;BME280;38103;42.776;23.112;2023-02-11T10:26:37;95324.34;;;2.12;48.48
52105;BME280;38103;42.776;23.112;2023-02-11T10:29:14;95340.59;;;2.43;48.16
52105;BME280;38103;42.776;23.112;2023-02-11T10:31:42;95336.38;;;2.42;47.75
52105;BME280;38103;42.776;23.112;2023-02-11T10:34:12;95324.56;;;2.38;48.67
52105;BME280;38103;42.776;23.112;2023-02-11T10:36:42;95326.28;;;2.29;47.03
52105;BME280;38103;42.776;23.112;2023-02-11T10:39:22;95315.69;;;2.30;48.57
52105;BME280;38103;42.776;23.112;2023-02-11T10:41:59;95314.06;;;2.29;48.91
52105;BME280;38103;42.776;23.112;2023-02-11T10:44:41;95298.16;;;2.22;48.55
52105;BME280;38103;42.776;23.112;2023-02-11T10:47:14;95259.19;;;2.03;47.81
52105;BME280;38103;42.776;23.112;2023-02-11T10:49:44;95295.28;;;2.44;47.38
52105;BME280;38103;42.776;23.112;2023-02-11T10:52:23;95229.66;;;2.02;46.49
52105;BME280;38103;42.776;23.112;2023-02-11T10:55:17;95296.09;;;2.44;47.34
52105;BME280;38103;42.776;23.112;2023-02-11T10:58:00;95286.31;;;2.28;46.89
52105;BME280;38103;42.776;23.112;2023-02-11T11:02:57;95281.56;;;2.42;47.89
52105;BME280;38103;42.776;23.112;2023-02-11T11:05:35;95280.94;;;2.48;47.73
52105;BME280;38103;42.776;23.112;2023-02-11T11:08:04;95277.19;;;2.69;48.46
52105;BME280;38103;42.776;23.112;2023-02-11T11:10:42;95270.25;;;2.78;46.61
52105;BME280;38103;42.776;23.112;2023-02-11T11:14:12;95265.16;;;2.76;46.73
52105;BME280;38103;42.776;23.112;2023-02-11T11:16:20;95264.59;;;2.64;46.82
52105;BME280;38103;42.776;23.112;2023-02-11T11:21:42;95215.94;;;2.00;46.39
52105;BME280;38103;42.776;23.112;2023-02-11T11:24:26;95268.50;;;2.23;47.95
52105;BME280;38103;42.776;23.112;2023-02-11T11:26:57;95250.53;;;2.39;47.82
52105;BME280;38103;42.776;23.112;2023-02-11T11:29:36;95256.19;;;2.52;48.91
52105;BME280;38103;42.776;23.112;2023-02-11T11:32:23;95257.97;;;2.78;47.06
52105;BME280;38103;42.776;23.112;2023-02-11T11:34:51;95260.81;;;2.85;46.33
52105;BME280;38103;42.776;23.112;2023-02-11T11:37:23;95244.81;;;2.62;46.49
52105;BME280;38103;42.776;23.112;2023-02-11T11:42:40;95251.91;;;2.70;47.73
52105;BME280;38103;42.776;23.112;2023-02-11T11:50:58;95228.34;;;2.88;46.88
52105;BME280;38103;42.776;23.112;2023-02-11T11:53:38;95228.75;;;3.01;47.84
52105;BME280;38103;42.776;23.112;2023-02-11T11:58:34;95216.25;;;3.13;46.47
52105;BME280;38103;42.776;23.112;2023-02-11T12:09:18;95208.78;;;2.92;46.34
52105;BME280;38103;42.776;23.112;2023-02-11T12:12:10;95205.19;;;2.93;46.13
52105;BME280;38103;42.776;23.112;2023-02-11T12:14:48;95204.78;;;2.79;46.81
52105;BME280;38103;42.776;23.112;2023-02-11T12:19:58;95185.31;;;3.00;46.10
52105;BME280;38103;42.776;23.112;2023-02-11T12:22:38;95184.66;;;3.07;45.34
52105;BME280;38103;42.776;23.112;2023-02-11T12:30:43;95169.94;;;2.97;44.04
52105;BME280;38103;42.776;23.112;2023-02-11T12:45:11;95157.84;;;3.40;43.74
52105;BME280;38103;42.776;23.112;2023-02-11T12:47:27;95164.22;;;3.45;42.87
52105;BME280;38103;42.776;23.112;2023-02-11T12:55:14;95150.50;;;3.35;42.30
52105;BME280;38103;42.776;23.112;2023-02-11T12:57:44;95147.16;;;3.16;41.42
52105;BME280;38103;42.776;23.112;2023-02-11T13:02:46;95142.25;;;3.13;42.25
52105;BME280;38103;42.776;23.112;2023-02-11T13:07:49;95142.38;;;3.03;41.68
52105;BME280;38103;42.776;23.112;2023-02-11T13:12:48;95101.63;;;2.84;41.61
52105;BME280;38103;42.776;23.112;2023-02-11T13:15:34;95099.81;;;2.76;42.12
52105;BME280;38103;42.776;23.112;2023-02-11T13:18:21;95136.16;;;2.96;41.99
52105;BME280;38103;42.776;23.112;2023-02-11T13:23:59;95138.56;;;2.89;43.13
52105;BME280;38103;42.776;23.112;2023-02-11T13:26:40;95139.22;;;2.91;43.89
52105;BME280;38103;42.776;23.112;2023-02-11T13:32:12;95057.44;;;2.55;43.24
52105;BME280;38103;42.776;23.112;2023-02-11T13:37:17;95082.00;;;2.71;43.50
52105;BME280;38103;42.776;23.112;2023-02-11T13:42:29;95093.38;;;2.62;43.65
52105;BME280;38103;42.776;23.112;2023-02-11T13:44:55;95115.16;;;2.79;43.80
52105;BME280;38103;42.776;23.112;2023-02-11T13:47:29;95114.34;;;2.78;44.32
52105;BME280;38103;42.776;23.112;2023-02-11T13:49:57;95108.47;;;2.76;43.21
52105;BME280;38103;42.776;23.112;2023-02-11T13:52:27;95113.03;;;2.74;43.72
52105;BME280;38103;42.776;23.112;2023-02-11T13:54:54;95114.34;;;2.78;44.29
52105;BME280;38103;42.776;23.112;2023-02-11T13:57:22;95104.59;;;2.89;45.09
52105;BME280;38103;42.776;23.112;2023-02-11T13:59:55;95099.38;;;2.89;42.93
52105;BME280;38103;42.776;23.112;2023-02-11T14:02:34;95099.72;;;2.86;42.46
52105;BME280;38103;42.776;23.112;2023-02-11T14:05:28;95103.53;;;2.73;42.51
52105;BME280;38103;42.776;23.112;2023-02-11T14:08:19;95091.97;;;2.67;42.56
52105;BME280;38103;42.776;23.112;2023-02-11T14:11:09;95098.31;;;2.73;42.43
52105;BME280;38103;42.776;23.112;2023-02-11T14:16:16;95100.00;;;2.83;43.10
52105;BME280;38103;42.776;23.112;2023-02-11T14:21:21;95098.56;;;2.88;42.77
52105;BME280;38103;42.776;23.112;2023-02-11T14:23:47;95097.34;;;2.74;43.18
52105;BME280;38103;42.776;23.112;2023-02-11T14:26:23;95091.84;;;2.77;43.10
52105;BME280;38103;42.776;23.112;2023-02-11T14:31:25;95093.34;;;2.53;43.15
52105;BME280;38103;42.776;23.112;2023-02-11T14:39:46;95088.13;;;2.53;43.75
52105;BME280;38103;42.776;23.112;2023-02-11T14:42:19;95092.50;;;2.44;43.14
52105;BME280;38103;42.776;23.112;2023-02-11T14:44:50;95086.75;;;2.41;43.22
52105;BME280;38103;42.776;23.112;2023-02-11T14:47:20;95086.56;;;2.34;43.89
52105;BME280;38103;42.776;23.112;2023-02-11T14:49:47;95099.09;;;2.30;43.18
52105;BME280;38103;42.776;23.112;2023-02-11T14:52:33;95090.44;;;2.30;44.16
52105;BME280;38103;42.776;23.112;2023-02-11T14:55:13;95092.69;;;2.25;43.84
52105;BME280;38103;42.776;23.112;2023-02-11T14:57:40;95073.69;;;2.06;43.98
52105;BME280;38103;42.776;23.112;2023-02-11T15:00:21;95079.69;;;2.06;43.88
52105;BME280;38103;42.776;23.112;2023-02-11T15:02:47;95083.00;;;2.08;44.13
52105;BME280;38103;42.776;23.112;2023-02-11T15:05:22;95076.13;;;2.07;44.35
52105;BME280;38103;42.776;23.112;2023-02-11T15:07:56;95080.81;;;2.04;44.08
52105;BME280;38103;42.776;23.112;2023-02-11T15:10:31;95076.31;;;1.87;44.20
52105;BME280;38103;42.776;23.112;2023-02-11T15:13:00;95075.03;;;1.92;44.78
52105;BME280;38103;42.776;23.112;2023-02-11T15:15:27;95027.03;;;1.58;45.14
52105;BME280;38103;42.776;23.112;2023-02-11T15:17:54;95074.06;;;1.93;45.51
52105;BME280;38103;42.776;23.112;2023-02-11T15:20:27;95017.38;;;1.50;45.90
52105;BME280;38103;42.776;23.112;2023-02-11T15:22:58;95066.56;;;1.71;46.13
52105;BME280;38103;42.776;23.112;2023-02-11T15:25:25;95070.97;;;1.71;47.00
52105;BME280;38103;42.776;23.112;2023-02-11T15:27:54;95065.16;;;1.77;47.36